createdAt,value
2018-09-02T00:01:06.021Z,80.38
2018-09-02T00:03:35.752Z,80.72
2018-09-02T00:06:05.213Z,80.51
2018-09-02T00:08:34.594Z,80.33
2018-09-02T00:11:04.425Z,80.15
2018-09-02T00:13:33.861Z,80.51
2018-09-02T00:16:03.252Z,80.62
2018-09-02T00:18:33.052Z,80.30
2018-09-02T00:21:02.806Z,79.92
2018-09-02T00:23:32.219Z,80.24
2018-09-02T00:26:02.046Z,80.40
2018-09-02T00:28:31.833Z,79.97
2018-09-02T00:31:01.556Z,80.24
2018-09-02T00:33:30.985Z,80.99
2018-09-02T00:36:00.422Z,80.65
2018-09-02T00:38:30.221Z,80.99
2018-09-02T00:40:59.606Z,81.69
2018-09-02T00:43:29.430Z,81.20
2018-09-02T00:45:58.856Z,81.42
2018-09-02T00:48:28.643Z,81.82
2018-09-02T00:50:58.427Z,81.74
2018-09-02T00:53:28.240Z,81.65
2018-09-02T00:55:57.640Z,80.86
2018-09-02T00:58:27.389Z,81.33
2018-09-02T01:00:57.125Z,81.63
2018-09-02T01:03:26.876Z,81.36
2018-09-02T01:05:56.300Z,81.27
2018-09-02T01:08:26.233Z,81.79
2018-09-02T01:10:55.620Z,81.66
2018-09-02T01:13:25.064Z,81.40
2018-09-02T01:15:54.760Z,81.22
2018-09-02T01:18:24.213Z,81.67
2018-09-02T01:20:53.602Z,81.71
2018-09-02T01:23:23.052Z,81.74
2018-09-02T01:25:52.521Z,81.43
2018-09-02T01:28:22.266Z,81.33
2018-09-02T01:30:52.000Z,81.38
2018-09-02T01:33:21.396Z,80.91
2018-09-02T01:35:51.131Z,81.22
2018-09-02T01:38:20.540Z,81.19
2018-09-02T01:40:50.304Z,80.85
2018-09-02T01:43:20.058Z,80.74
2018-09-02T01:45:49.772Z,81.01
2018-09-02T01:48:19.554Z,80.47
2018-09-02T01:50:48.915Z,80.55
2018-09-02T01:53:18.331Z,80.19
2018-09-02T01:55:47.752Z,79.68
2018-09-02T01:58:17.176Z,80.22
2018-09-02T02:00:46.920Z,79.90
2018-09-02T02:03:16.665Z,79.91
2018-09-02T02:05:46.469Z,80.22
2018-09-02T02:08:15.928Z,79.69
2018-09-02T02:10:45.715Z,80.00
2018-09-02T02:13:15.137Z,79.55
2018-09-02T02:15:44.581Z,79.58
2018-09-02T02:18:14.319Z,79.17
2018-09-02T02:20:44.487Z,79.59
2018-09-02T02:23:14.275Z,79.55
2018-09-02T02:25:43.754Z,79.14
2018-09-02T02:28:13.147Z,79.23
2018-09-02T02:30:42.982Z,78.87
2018-09-02T02:33:12.669Z,79.32
2018-09-02T02:35:42.117Z,79.54
2018-09-02T02:38:11.896Z,80.12
2018-09-02T02:40:41.729Z,79.72
2018-09-02T02:43:11.087Z,79.89
2018-09-02T02:45:40.554Z,79.70
2018-09-02T02:48:09.967Z,80.24
2018-09-02T02:50:39.794Z,80.99
2018-09-02T02:53:09.571Z,81.21
2018-09-02T02:55:39.357Z,81.38
2018-09-02T02:58:09.195Z,82.00
2018-09-02T03:00:38.637Z,82.11
2018-09-02T03:03:08.046Z,82.75
2018-09-02T03:05:38.013Z,83.87
2018-09-02T03:08:07.889Z,83.64
2018-09-02T03:10:37.418Z,84.26
2018-09-02T03:13:07.257Z,84.74
2018-09-02T03:15:37.124Z,85.09
2018-09-02T03:18:06.953Z,86.52
2018-09-02T03:20:36.740Z,87.61
2018-09-02T03:23:07.563Z,88.23
2018-09-02T03:25:37.043Z,88.84
2018-09-02T03:28:06.553Z,89.01
2018-09-02T03:30:36.345Z,90.05
2018-09-02T03:33:06.249Z,90.79
2018-09-02T03:35:35.675Z,90.94
2018-09-02T03:38:05.159Z,91.22
2018-09-02T03:40:34.561Z,90.44
2018-09-02T03:43:04.455Z,91.83
2018-09-02T03:45:33.866Z,92.29
2018-09-02T03:48:03.851Z,92.48
2018-09-02T03:50:33.275Z,93.24
2018-09-02T03:53:03.164Z,93.21
2018-09-02T03:55:32.618Z,92.81
2018-09-02T03:58:02.614Z,92.36
2018-09-02T04:00:31.985Z,92.30
2018-09-02T04:03:01.968Z,92.82
2018-09-02T04:05:31.709Z,92.48
2018-09-02T04:08:01.238Z,92.10
2018-09-02T04:10:30.660Z,92.49
2018-09-02T04:13:00.158Z,92.34
2018-09-02T04:15:29.605Z,92.27
2018-09-02T04:17:59.414Z,92.58
2018-09-02T04:20:33.223Z,92.13
2018-09-02T04:23:03.231Z,92.13
2018-09-02T04:25:33.795Z,92.92
2018-09-02T04:28:03.247Z,92.38
2018-09-02T04:30:32.646Z,92.34
2018-09-02T04:33:02.152Z,92.74
2018-09-02T04:35:31.601Z,92.01
2018-09-02T04:38:01.459Z,92.28
2018-09-02T04:40:31.062Z,91.44
2018-09-02T04:43:00.538Z,91.69
2018-09-02T04:45:30.331Z,91.85
2018-09-02T04:48:00.241Z,91.62
2018-09-02T04:50:30.025Z,91.92
2018-09-02T04:52:59.430Z,91.98
2018-09-02T04:55:28.903Z,91.80
2018-09-02T04:58:01.607Z,92.41
2018-09-02T05:00:31.075Z,92.17
2018-09-02T05:03:00.434Z,92.57
2018-09-02T05:05:30.175Z,92.28
2018-09-02T05:08:00.048Z,91.75
2018-09-02T05:10:29.446Z,91.48
2018-09-02T05:12:59.215Z,91.55
2018-09-02T05:15:29.074Z,91.67
2018-09-02T05:17:58.559Z,91.50
2018-09-02T05:20:27.991Z,91.43
2018-09-02T05:22:57.798Z,91.93
2018-09-02T05:25:27.176Z,91.66
2018-09-02T05:27:56.661Z,92.45
2018-09-02T05:30:26.638Z,91.75
2018-09-02T05:32:56.114Z,92.11
2018-09-02T05:35:25.558Z,92.07
2018-09-02T05:37:55.499Z,91.78
2018-09-02T05:40:25.293Z,90.92
2018-09-02T05:42:55.051Z,91.94
2018-09-02T05:45:25.015Z,91.66
2018-09-02T05:47:58.474Z,92.17
2018-09-02T05:50:27.840Z,92.47
2018-09-02T05:52:57.559Z,92.01
2018-09-02T05:55:26.982Z,92.56
2018-09-02T05:57:56.669Z,92.10
2018-09-02T06:00:26.102Z,92.58
2018-09-02T06:02:56.074Z,91.74
2018-09-02T06:05:26.018Z,92.44
2018-09-02T06:07:57.387Z,92.81
2018-09-02T06:10:27.202Z,92.18
2018-09-02T06:12:56.941Z,93.28
2018-09-02T06:15:26.324Z,94.49
2018-09-02T06:17:55.731Z,95.07
2018-09-02T06:20:25.122Z,95.73
2018-09-02T06:22:54.842Z,96.24
2018-09-02T06:25:24.602Z,96.62
2018-09-02T06:27:54.072Z,96.46
2018-09-02T06:30:23.610Z,98.37
2018-09-02T06:32:53.501Z,98.13
2018-09-02T06:35:23.119Z,98.70
2018-09-02T06:37:53.170Z,98.35
2018-09-02T06:40:22.644Z,98.41
2018-09-02T06:42:52.056Z,98.32
2018-09-02T06:45:21.570Z,98.89
2018-09-02T06:47:51.113Z,98.61
2018-09-02T06:50:20.842Z,98.52
2018-09-02T06:52:50.318Z,98.36
2018-09-02T06:55:19.705Z,97.71
2018-09-02T06:57:49.321Z,97.58
2018-09-02T07:00:19.069Z,97.08
2018-09-02T07:02:48.669Z,97.41
2018-09-02T07:05:18.372Z,97.43
2018-09-02T07:07:47.825Z,97.45
2018-09-02T07:10:17.628Z,96.45
2018-09-02T07:12:47.082Z,96.48
2018-09-02T07:15:16.485Z,97.25
2018-09-02T07:17:46.279Z,96.26
2018-09-02T07:20:16.135Z,95.91
2018-09-02T07:22:45.533Z,95.44
2018-09-02T07:25:14.930Z,95.26
2018-09-02T07:27:44.766Z,95.01
2018-09-02T07:30:14.398Z,95.16
2018-09-02T07:32:44.268Z,95.71
2018-09-02T07:35:14.135Z,95.42
2018-09-02T07:37:43.611Z,95.16
2018-09-02T07:40:13.444Z,94.07
2018-09-02T07:42:43.345Z,93.59
2018-09-02T07:45:13.471Z,93.99
2018-09-02T07:47:43.011Z,93.18
2018-09-02T07:50:12.922Z,92.90
2018-09-02T07:52:42.305Z,92.00
2018-09-02T07:55:11.793Z,92.54
2018-09-02T07:57:41.197Z,93.23
2018-09-02T08:00:11.365Z,93.81
2018-09-02T08:02:41.481Z,93.83
2018-09-02T08:05:11.432Z,94.32
2018-09-02T08:07:41.237Z,93.19
2018-09-02T08:10:10.969Z,93.31
2018-09-02T08:12:40.524Z,92.75
2018-09-02T08:15:10.239Z,92.65
2018-09-02T08:17:40.015Z,92.66
2018-09-02T08:20:09.861Z,91.77
2018-09-02T08:22:39.358Z,91.14
2018-09-02T08:25:09.792Z,90.72
2018-09-02T08:27:39.698Z,90.04
2018-09-02T08:30:09.102Z,90.08
2018-09-02T08:32:38.959Z,89.90
2018-09-02T08:35:08.765Z,89.86
2018-09-02T08:37:38.129Z,89.55
2018-09-02T08:40:08.294Z,89.65
2018-09-02T08:42:38.053Z,89.13
2018-09-02T08:45:08.589Z,89.08
2018-09-02T08:47:38.000Z,88.88
2018-09-02T08:50:07.585Z,89.08
2018-09-02T08:52:37.334Z,88.56
2018-09-02T08:55:06.812Z,87.36
2018-09-02T08:57:36.629Z,86.60
2018-09-02T09:00:06.857Z,85.50
2018-09-02T09:02:36.351Z,85.16
2018-09-02T09:05:06.769Z,84.25
2018-09-02T09:07:36.375Z,84.30
2018-09-02T09:10:06.593Z,83.02
2018-09-02T09:12:36.424Z,80.46
2018-09-02T09:15:06.605Z,81.14
2018-09-02T09:17:36.026Z,80.19
2018-09-02T09:20:06.010Z,82.21
2018-09-02T09:22:36.324Z,83.43
2018-09-02T09:25:07.003Z,82.44
2018-09-02T09:27:36.788Z,82.69
2018-09-02T09:30:07.477Z,82.05
2018-09-02T09:32:37.345Z,82.33
2018-09-02T09:35:07.324Z,82.75
2018-09-02T09:37:37.349Z,83.04
2018-09-02T09:40:07.209Z,83.39
2018-09-02T09:42:37.185Z,85.47
2018-09-02T09:45:07.189Z,85.69
2018-09-02T09:47:36.601Z,85.67
2018-09-02T09:50:07.257Z,86.64
2018-09-02T09:52:37.104Z,87.08
2018-09-02T09:55:07.109Z,86.42
2018-09-02T09:57:37.225Z,86.33
2018-09-02T10:00:07.543Z,85.78
2018-09-02T10:02:37.144Z,84.76
2018-09-02T10:05:06.984Z,85.54
2018-09-02T10:07:36.568Z,85.18
2018-09-02T10:10:06.545Z,84.10
2018-09-02T10:12:36.316Z,83.86
2018-09-02T10:15:05.846Z,83.54
2018-09-02T10:17:35.568Z,83.62
2018-09-02T10:20:05.128Z,83.83
2018-09-02T10:22:34.624Z,83.93
2018-09-02T10:25:04.473Z,83.82
2018-09-02T10:27:33.921Z,83.30
2018-09-02T10:30:03.396Z,83.20
2018-09-02T10:32:32.948Z,81.80
2018-09-02T10:35:02.969Z,80.61
2018-09-02T10:37:32.414Z,78.72
2018-09-02T10:40:02.512Z,77.78
2018-09-02T10:42:32.392Z,76.02
2018-09-02T10:45:02.453Z,73.29
2018-09-02T10:47:34.133Z,71.94
2018-09-02T10:50:04.152Z,69.77
2018-09-02T10:52:34.789Z,69.16
2018-09-02T10:55:04.740Z,70.10
2018-09-02T10:57:36.282Z,74.69
2018-09-02T11:00:06.882Z,72.08
2018-09-02T11:02:36.683Z,72.20
2018-09-02T11:05:07.164Z,75.03
2018-09-02T11:07:37.183Z,75.40
2018-09-02T11:10:07.035Z,74.62
2018-09-02T11:12:36.819Z,74.66
2018-09-02T11:15:07.283Z,75.87
2018-09-02T11:17:36.875Z,77.55
2018-09-02T11:20:07.305Z,75.97
2018-09-02T11:22:36.842Z,77.89
2018-09-02T11:25:06.947Z,76.48
2018-09-02T11:27:36.685Z,74.18
2018-09-02T11:30:06.564Z,74.06
2018-09-02T11:32:36.337Z,70.94
2018-09-02T11:35:06.235Z,74.23
2018-09-02T11:37:35.672Z,73.20
2018-09-02T11:40:05.479Z,69.59
2018-09-02T11:42:34.929Z,67.66
2018-09-02T11:45:04.472Z,68.45
2018-09-02T11:47:34.481Z,67.84
2018-09-02T11:50:05.175Z,67.71
2018-09-02T11:52:34.909Z,69.57
2018-09-02T11:55:04.436Z,72.02
2018-09-02T11:57:33.940Z,71.46
2018-09-02T12:00:03.928Z,68.64
2018-09-02T12:02:33.441Z,67.53
2018-09-02T12:05:03.539Z,67.39
2018-09-02T12:07:32.955Z,65.86
2018-09-02T12:10:02.434Z,65.33
2018-09-02T12:12:31.835Z,66.65
2018-09-02T12:15:01.356Z,67.61
2018-09-02T12:17:31.423Z,68.46
2018-09-02T12:20:00.824Z,70.00
2018-09-02T12:22:31.122Z,69.79
2018-09-02T12:25:00.732Z,67.98
2018-09-02T12:27:30.289Z,66.95
2018-09-02T12:30:00.174Z,67.50
2018-09-02T12:32:30.679Z,67.11
2018-09-02T12:35:00.451Z,67.53
2018-09-02T12:37:33.597Z,65.41
2018-09-02T12:40:03.242Z,62.58
2018-09-02T12:42:33.116Z,62.41
2018-09-02T12:45:04.342Z,64.04
2018-09-02T12:47:34.174Z,61.97
2018-09-02T12:50:03.770Z,61.60
2018-09-02T12:52:33.745Z,60.90
2018-09-02T12:55:04.797Z,61.63
2018-09-02T12:57:40.090Z,62.98
2018-09-02T13:00:15.938Z,63.56
2018-09-02T13:02:47.088Z,66.65
2018-09-02T13:05:17.470Z,65.06
2018-09-02T13:07:47.698Z,64.69
2018-09-02T13:10:17.507Z,66.19
2018-09-02T13:13:13.248Z,66.83
2018-09-02T13:15:45.594Z,65.18
2018-09-02T13:18:15.906Z,65.12
2018-09-02T13:20:55.738Z,65.30
2018-09-02T13:23:25.612Z,64.78
2018-09-02T13:25:55.218Z,65.75
2018-09-02T13:28:27.279Z,66.71
2018-09-02T13:30:57.940Z,66.06
2018-09-02T13:33:28.120Z,65.16
2018-09-02T13:35:57.895Z,64.38
2018-09-02T13:38:27.627Z,64.24
2018-09-02T13:40:57.202Z,64.29
2018-09-02T13:43:26.867Z,63.94
2018-09-02T13:45:56.530Z,62.11
2018-09-02T13:48:26.156Z,61.85
2018-09-02T13:50:56.295Z,60.07
2018-09-02T13:53:26.002Z,57.31
2018-09-02T13:55:56.240Z,57.22
2018-09-02T13:58:26.275Z,57.04
2018-09-02T14:00:55.952Z,57.71
2018-09-02T14:03:25.501Z,58.11
2018-09-02T14:05:55.442Z,56.83
2018-09-02T14:08:25.210Z,55.33
2018-09-02T14:10:55.134Z,58.17
2018-09-02T14:13:25.187Z,58.72
2018-09-02T14:15:55.307Z,59.10
2018-09-02T14:18:24.894Z,58.85
2018-09-02T14:20:54.566Z,58.53
2018-09-02T14:23:24.758Z,58.43
2018-09-02T14:25:54.887Z,58.38
2018-09-02T14:28:24.636Z,58.21
2018-09-02T14:30:54.705Z,58.70
2018-09-02T14:33:24.733Z,58.77
2018-09-02T14:35:55.311Z,59.16
2018-09-02T14:38:24.778Z,58.64
2018-09-02T14:40:55.111Z,61.75
2018-09-02T14:43:25.008Z,63.58
2018-09-02T14:45:55.087Z,62.88
2018-09-02T14:48:24.790Z,62.16
2018-09-02T14:50:54.841Z,61.56
2018-09-02T14:53:24.886Z,60.65
2018-09-02T14:55:55.957Z,59.71
2018-09-02T14:58:26.018Z,58.66
2018-09-02T15:00:57.639Z,58.21
2018-09-02T15:03:27.230Z,58.57
2018-09-02T15:05:56.683Z,59.12
2018-09-02T15:08:28.430Z,59.46
2018-09-02T15:10:58.493Z,60.37
2018-09-02T15:13:28.251Z,59.87
2018-09-02T15:15:59.822Z,59.66
2018-09-02T15:18:29.661Z,59.86
2018-09-02T15:21:02.076Z,59.83
2018-09-02T15:23:32.680Z,60.78
2018-09-02T15:26:03.250Z,60.28
2018-09-02T15:28:37.951Z,60.00
2018-09-02T15:31:08.582Z,60.38
2018-09-02T15:33:38.966Z,60.70
2018-09-02T15:36:09.337Z,60.34
2018-09-02T15:38:39.980Z,60.92
2018-09-02T15:41:10.539Z,60.93
2018-09-02T15:43:41.476Z,61.74
2018-09-02T15:46:11.870Z,61.77
2018-09-02T15:48:41.605Z,61.85
2018-09-02T15:51:11.885Z,63.10
2018-09-02T15:53:41.839Z,63.77
2018-09-02T15:56:11.280Z,63.51
2018-09-02T15:58:41.205Z,64.47
2018-09-02T16:01:11.430Z,64.73
2018-09-02T16:03:41.510Z,65.75
2018-09-02T16:06:11.381Z,65.98
2018-09-02T16:08:41.184Z,66.44
2018-09-02T16:11:11.515Z,66.88
2018-09-02T16:13:41.049Z,66.82
2018-09-02T16:16:12.109Z,67.49
2018-09-02T16:18:41.853Z,67.78
2018-09-02T16:21:12.011Z,67.60
2018-09-02T16:23:41.859Z,68.03
2018-09-02T16:26:12.441Z,68.00
2018-09-02T16:28:42.781Z,67.51
2018-09-02T16:31:13.288Z,68.36
2018-09-02T16:33:43.961Z,68.37
2018-09-02T16:36:13.948Z,68.78
2018-09-02T16:38:44.249Z,68.67
2018-09-02T16:41:14.510Z,68.54
2018-09-02T16:43:44.429Z,69.19
2018-09-02T16:46:14.244Z,69.08
2018-09-02T16:48:43.875Z,69.71
2018-09-02T16:51:13.353Z,69.72
2018-09-02T16:53:42.814Z,69.16
2018-09-02T16:56:12.387Z,69.63
2018-09-02T16:58:41.984Z,69.80
2018-09-02T17:01:14.979Z,69.43
2018-09-02T17:03:48.043Z,69.96
2018-09-02T17:06:18.884Z,69.65
2018-09-02T17:08:51.017Z,69.91
2018-09-02T17:11:20.795Z,70.91
2018-09-02T17:13:54.641Z,71.88
2018-09-02T17:16:24.863Z,72.09
2018-09-02T17:18:58.667Z,72.89
2018-09-02T17:21:29.112Z,73.62
2018-09-02T17:23:59.521Z,74.15
2018-09-02T17:26:29.109Z,74.04
2018-09-02T17:29:00.755Z,75.20
2018-09-02T17:31:30.577Z,74.27
2018-09-02T17:34:03.973Z,74.61
2018-09-02T17:36:36.244Z,74.62
2018-09-02T17:39:09.821Z,74.35
2018-09-02T17:41:40.386Z,73.95
2018-09-02T17:44:11.585Z,74.21
2018-09-02T17:46:41.941Z,74.16
2018-09-02T17:49:12.357Z,73.87
2018-09-02T17:51:42.095Z,74.58
2018-09-02T17:54:12.500Z,73.86
2018-09-02T17:56:42.755Z,73.43
2018-09-02T17:59:12.606Z,74.54
2018-09-02T18:01:42.942Z,73.94
2018-09-02T18:04:13.205Z,72.90
2018-09-02T18:06:43.049Z,72.65
2018-09-02T18:09:13.131Z,72.02
2018-09-02T18:11:43.600Z,71.74
2018-09-02T18:14:13.562Z,71.40
2018-09-02T18:16:43.964Z,71.27
2018-09-02T18:19:14.309Z,71.63
2018-09-02T18:21:44.583Z,71.95
2018-09-02T18:24:14.808Z,72.30
2018-09-02T18:26:44.871Z,71.72
2018-09-02T18:29:15.069Z,71.81
2018-09-02T18:31:45.460Z,72.34
2018-09-02T18:34:15.575Z,71.98
2018-09-02T18:36:45.805Z,71.74
2018-09-02T18:39:15.628Z,71.87
2018-09-02T18:41:45.960Z,72.20
2018-09-02T18:44:16.237Z,72.42
2018-09-02T18:46:46.684Z,73.04
2018-09-02T18:49:17.071Z,72.29
2018-09-02T18:51:47.034Z,72.61
2018-09-02T18:54:16.532Z,72.07
2018-09-02T18:56:45.936Z,71.89
2018-09-02T18:59:15.474Z,71.78
2018-09-02T19:01:44.958Z,71.65
2018-09-02T19:04:14.372Z,71.70
2018-09-02T19:06:44.393Z,72.03
2018-09-02T19:09:14.160Z,72.09
2018-09-02T19:11:43.859Z,72.06
2018-09-02T19:14:13.303Z,72.27
2018-09-02T19:16:42.752Z,72.71
2018-09-02T19:19:12.727Z,72.39
2018-09-02T19:21:42.199Z,72.82
2018-09-02T19:24:12.100Z,72.88
2018-09-02T19:26:41.471Z,73.46
2018-09-02T19:29:10.988Z,73.97
2018-09-02T19:31:40.995Z,74.04
2018-09-02T19:34:11.657Z,74.68
2018-09-02T19:36:41.164Z,74.89
2018-09-02T19:39:11.247Z,74.59
2018-09-02T19:41:42.385Z,74.30
2018-09-02T19:44:12.622Z,74.30
2018-09-02T19:46:42.617Z,74.59
2018-09-02T19:49:12.655Z,74.56
2018-09-02T19:51:42.693Z,75.00
2018-09-02T19:54:12.673Z,74.97
2018-09-02T19:56:42.492Z,75.49
2018-09-02T19:59:12.298Z,76.17
2018-09-02T20:01:41.730Z,75.98
2018-09-02T20:04:11.282Z,76.93
2018-09-02T20:06:41.244Z,76.90
2018-09-02T20:09:12.774Z,77.05
2018-09-02T20:11:42.580Z,77.36
2018-09-02T20:14:13.354Z,77.97
2018-09-02T20:16:43.219Z,78.07
2018-09-02T20:19:13.200Z,78.06
2018-09-02T20:21:43.625Z,77.62
2018-09-02T20:24:13.629Z,77.67
2018-09-02T20:26:43.660Z,77.89
2018-09-02T20:29:13.232Z,78.12
2018-09-02T20:31:42.804Z,78.76
2018-09-02T20:34:12.766Z,78.98
2018-09-02T20:36:42.802Z,79.04
2018-09-02T20:39:12.552Z,79.86
2018-09-02T20:41:42.125Z,79.04
2018-09-02T20:44:11.787Z,78.34
2018-09-02T20:46:41.308Z,78.73
2018-09-02T20:49:10.848Z,78.62
2018-09-02T20:51:40.893Z,78.62
2018-09-02T20:54:10.781Z,78.44
2018-09-02T20:56:40.651Z,78.04
2018-09-02T20:59:10.590Z,77.26
2018-09-02T21:01:41.073Z,76.89
2018-09-02T21:04:11.075Z,76.90
2018-09-02T21:06:40.575Z,76.50
2018-09-02T21:09:13.551Z,76.90
2018-09-02T21:11:43.487Z,76.63
2018-09-02T21:14:12.980Z,76.65
2018-09-02T21:16:42.584Z,76.28
2018-09-02T21:19:12.491Z,77.01
2018-09-02T21:21:42.415Z,76.70
2018-09-02T21:24:12.184Z,77.62
2018-09-02T21:26:41.623Z,76.68
2018-09-02T21:29:11.108Z,76.95
2018-09-02T21:31:40.530Z,76.62
2018-09-02T21:34:10.357Z,76.44
2018-09-02T21:36:40.133Z,76.48
2018-09-02T21:39:09.939Z,76.39
2018-09-02T21:41:39.754Z,77.10
2018-09-02T21:44:09.546Z,77.15
2018-09-02T21:46:39.007Z,76.96
2018-09-02T21:49:08.458Z,77.26
2018-09-02T21:51:38.253Z,77.84
2018-09-02T21:54:07.658Z,77.97
2018-09-02T21:56:37.739Z,77.14
2018-09-02T21:59:07.101Z,77.58
2018-09-02T22:01:36.502Z,76.79
2018-09-02T22:04:05.923Z,77.31
2018-09-02T22:06:35.802Z,77.02
2018-09-02T22:09:14.504Z,76.74
2018-09-02T22:11:44.672Z,77.57
2018-09-02T22:14:14.710Z,76.73
2018-09-02T22:16:45.460Z,76.57
2018-09-02T22:19:14.835Z,76.94
2018-09-02T22:21:44.660Z,77.76
2018-09-02T22:24:14.111Z,76.96
2018-09-02T22:26:43.880Z,77.57
2018-09-02T22:29:13.383Z,77.56
2018-09-02T22:31:43.131Z,77.78
2018-09-02T22:34:12.613Z,77.81
2018-09-02T22:36:42.382Z,77.67
2018-09-02T22:39:12.194Z,78.22
2018-09-02T22:41:42.099Z,78.12
2018-09-02T22:44:11.998Z,78.44
2018-09-02T22:46:41.424Z,77.85
2018-09-02T22:49:10.782Z,78.64
2018-09-02T22:51:40.194Z,79.31
2018-09-02T22:54:09.549Z,79.77
2018-09-02T22:56:38.976Z,80.01
2018-09-02T22:59:08.731Z,79.57
2018-09-02T23:01:38.496Z,79.99
2018-09-02T23:04:08.239Z,79.71
2018-09-02T23:06:37.657Z,79.89
2018-09-02T23:09:08.720Z,80.21
2018-09-02T23:11:38.163Z,80.87
2018-09-02T23:14:07.942Z,80.72
2018-09-02T23:16:37.405Z,80.66
2018-09-02T23:19:07.144Z,80.50
2018-09-02T23:21:36.941Z,80.96
2018-09-02T23:24:06.721Z,81.87
2018-09-02T23:26:36.444Z,82.81
2018-09-02T23:29:05.929Z,82.17
2018-09-02T23:31:35.599Z,82.21
2018-09-02T23:34:05.550Z,81.71
2018-09-02T23:36:34.944Z,82.04
2018-09-02T23:39:06.534Z,82.24
2018-09-02T23:41:36.302Z,81.55
2018-09-02T23:44:06.070Z,81.79
2018-09-02T23:46:35.939Z,82.23
2018-09-02T23:49:05.583Z,82.56
2018-09-02T23:51:35.389Z,82.87
2018-09-02T23:54:05.257Z,83.17
2018-09-02T23:56:35.070Z,83.22
2018-09-02T23:59:04.990Z,82.63
